SAS447 ESGG-EKCH
Flight info
| Callsign | SAS447 |
|---|---|
| Flight time | 0h 27m |
| Altitude | 21000 |
| Route | TOPLA L996 ERNOV |
| Aircraft | A319/M-SDE3FGHIRWY/LB1 |
Departure
| Time | 2026-05-04 19:45 |
|---|---|
| Airport | Göteborg Landvetter Airport (ESGG) |
Arrival
| Time | 2026-05-04 20:13 |
|---|---|
| Airport | Copenhagen Kastrup Airport (EKCH) |
| Time | Latitude | Longitude | Altitude | Speed | Heading |
|---|---|---|---|---|---|
| 2026-05-04 19:26 | 57.66932 | 12.29468 | 516 ft | 0 kts | 116° |
| 2026-05-04 19:37 | 57.66932 | 12.29466 | 516 ft | 1 kts | 116° |
| 2026-05-04 19:37 | 57.66939 | 12.29439 | 516 ft | 3 kts | 114° |
| 2026-05-04 19:37 | 57.66947 | 12.29404 | 516 ft | 3 kts | 107° |
| 2026-05-04 19:38 | 57.66952 | 12.29368 | 516 ft | 3 kts | 92° |
| 2026-05-04 19:38 | 57.66950 | 12.29334 | 516 ft | 3 kts | 55° |
| 2026-05-04 19:38 | 57.66944 | 12.29320 | 516 ft | 0 kts | 26° |
| 2026-05-04 19:38 | 57.66943 | 12.29320 | 516 ft | 1 kts | 26° |
| 2026-05-04 19:41 | 57.66949 | 12.29325 | 516 ft | 4 kts | 26° |
| 2026-05-04 19:42 | 57.66984 | 12.29308 | 516 ft | 7 kts | 297° |
| 2026-05-04 19:42 | 57.67018 | 12.29193 | 516 ft | 13 kts | 327° |
| 2026-05-04 19:42 | 57.67110 | 12.29250 | 516 ft | 16 kts | 27° |
| 2026-05-04 19:42 | 57.67203 | 12.29332 | 516 ft | 13 kts | 25° |
| 2026-05-04 19:43 | 57.67289 | 12.29411 | 516 ft | 11 kts | 26° |
| 2026-05-04 19:43 | 57.67362 | 12.29477 | 516 ft | 13 kts | 24° |
| 2026-05-04 19:43 | 57.67430 | 12.29410 | 516 ft | 14 kts | 297° |
| 2026-05-04 19:43 | 57.67460 | 12.29216 | 515 ft | 18 kts | 266° |
| 2026-05-04 19:44 | 57.67445 | 12.29053 | 515 ft | 12 kts | 252° |
| 2026-05-04 19:44 | 57.67416 | 12.29009 | 515 ft | 0 kts | 204° |
| 2026-05-04 19:44 | 57.67337 | 12.28942 | 515 ft | 41 kts | 204° |
| 2026-05-04 19:45 | 57.66876 | 12.28521 | 513 ft | 105 kts | 205° |
| 2026-05-04 19:45 | 57.66043 | 12.27760 | 511 ft | 159 kts | 207° |
| 2026-05-04 19:45 | 57.65039 | 12.26814 | 1120 ft | 163 kts | 210° |
| 2026-05-04 19:45 | 57.64021 | 12.25886 | 1987 ft | 161 kts | 214° |
| 2026-05-04 19:46 | 57.62994 | 12.24956 | 2643 ft | 172 kts | 214° |
| 2026-05-04 19:46 | 57.61842 | 12.23899 | 3027 ft | 197 kts | 213° |
| 2026-05-04 19:46 | 57.60441 | 12.22999 | 3500 ft | 229 kts | 197° |
| 2026-05-04 19:46 | 57.58764 | 12.22604 | 4077 ft | 256 kts | 189° |
| 2026-05-04 19:47 | 57.56943 | 12.22410 | 5022 ft | 264 kts | 188° |
| 2026-05-04 19:47 | 57.55103 | 12.22456 | 6041 ft | 274 kts | 177° |
| 2026-05-04 19:47 | 57.53196 | 12.23081 | 7022 ft | 279 kts | 175° |
| 2026-05-04 19:47 | 57.51275 | 12.23690 | 7986 ft | 282 kts | 177° |
| 2026-05-04 19:48 | 57.49319 | 12.24271 | 8997 ft | 284 kts | 178° |
| 2026-05-04 19:48 | 57.47377 | 12.24822 | 9927 ft | 288 kts | 179° |
| 2026-05-04 19:48 | 57.45328 | 12.25376 | 10412 ft | 308 kts | 179° |
| 2026-05-04 19:48 | 57.43124 | 12.25953 | 10818 ft | 327 kts | 179° |
| 2026-05-04 19:49 | 57.40836 | 12.26560 | 11523 ft | 335 kts | 179° |
| 2026-05-04 19:49 | 57.38538 | 12.27177 | 12300 ft | 339 kts | 179° |
| 2026-05-04 19:49 | 57.36194 | 12.27811 | 13117 ft | 342 kts | 179° |
| 2026-05-04 19:49 | 57.33814 | 12.28460 | 13887 ft | 346 kts | 179° |
| 2026-05-04 19:50 | 57.31415 | 12.29110 | 14520 ft | 351 kts | 179° |
| 2026-05-04 19:50 | 57.28971 | 12.29766 | 15173 ft | 355 kts | 179° |
| 2026-05-04 19:50 | 57.26506 | 12.30432 | 15825 ft | 360 kts | 178° |
| 2026-05-04 19:50 | 57.24037 | 12.31100 | 16476 ft | 364 kts | 178° |
| 2026-05-04 19:51 | 57.21504 | 12.31774 | 17113 ft | 368 kts | 178° |
| 2026-05-04 19:51 | 57.18943 | 12.32450 | 17785 ft | 373 kts | 178° |
| 2026-05-04 19:51 | 57.16392 | 12.33121 | 18411 ft | 377 kts | 178° |
| 2026-05-04 19:51 | 57.13782 | 12.33812 | 18794 ft | 380 kts | 178° |
| 2026-05-04 19:52 | 57.11162 | 12.34498 | 18916 ft | 380 kts | 179° |
| 2026-05-04 19:52 | 57.08545 | 12.35159 | 18926 ft | 379 kts | 179° |
| 2026-05-04 19:52 | 57.05925 | 12.35810 | 18931 ft | 379 kts | 179° |
| 2026-05-04 19:52 | 57.03303 | 12.36457 | 18911 ft | 379 kts | 178° |
| 2026-05-04 19:53 | 57.00689 | 12.37101 | 18929 ft | 378 kts | 178° |
| 2026-05-04 19:53 | 56.98107 | 12.37737 | 18934 ft | 378 kts | 178° |
| 2026-05-04 19:53 | 56.95498 | 12.38375 | 18934 ft | 377 kts | 178° |
| 2026-05-04 19:53 | 56.92907 | 12.39015 | 18794 ft | 372 kts | 178° |
| 2026-05-04 19:54 | 56.90357 | 12.39652 | 18437 ft | 366 kts | 178° |
| 2026-05-04 19:54 | 56.87890 | 12.40270 | 18105 ft | 358 kts | 178° |
| 2026-05-04 19:54 | 56.85436 | 12.40882 | 17849 ft | 352 kts | 178° |
| 2026-05-04 19:54 | 56.83004 | 12.41480 | 17571 ft | 350 kts | 179° |
| 2026-05-04 19:55 | 56.80591 | 12.42066 | 17301 ft | 348 kts | 179° |
| 2026-05-04 19:55 | 56.78194 | 12.42647 | 17038 ft | 347 kts | 179° |
| 2026-05-04 19:55 | 56.75803 | 12.43227 | 16742 ft | 346 kts | 178° |
| 2026-05-04 19:55 | 56.73415 | 12.43805 | 16479 ft | 344 kts | 178° |
| 2026-05-04 19:56 | 56.71045 | 12.44378 | 16210 ft | 343 kts | 178° |
| 2026-05-04 19:56 | 56.68687 | 12.44955 | 15965 ft | 341 kts | 178° |
| 2026-05-04 19:56 | 56.66357 | 12.45525 | 15709 ft | 340 kts | 178° |
| 2026-05-04 19:56 | 56.64012 | 12.46097 | 15463 ft | 339 kts | 178° |
| 2026-05-04 19:57 | 56.61677 | 12.46666 | 15213 ft | 337 kts | 179° |
| 2026-05-04 19:57 | 56.59355 | 12.47229 | 14966 ft | 336 kts | 179° |
| 2026-05-04 19:57 | 56.57034 | 12.47789 | 14719 ft | 335 kts | 179° |
| 2026-05-04 19:57 | 56.54752 | 12.48342 | 14478 ft | 334 kts | 179° |
| 2026-05-04 19:58 | 56.52448 | 12.48898 | 14237 ft | 332 kts | 179° |
| 2026-05-04 19:58 | 56.50158 | 12.49449 | 13997 ft | 331 kts | 179° |
| 2026-05-04 19:58 | 56.47874 | 12.50000 | 13733 ft | 330 kts | 178° |
| 2026-05-04 19:58 | 56.45593 | 12.50553 | 13465 ft | 329 kts | 178° |
| 2026-05-04 19:59 | 56.43325 | 12.51099 | 13199 ft | 328 kts | 178° |
| 2026-05-04 19:59 | 56.41066 | 12.51646 | 12932 ft | 327 kts | 178° |
| 2026-05-04 19:59 | 56.38835 | 12.52184 | 12668 ft | 326 kts | 178° |
| 2026-05-04 19:59 | 56.36581 | 12.52721 | 12407 ft | 324 kts | 178° |
| 2026-05-04 20:00 | 56.34348 | 12.53249 | 12147 ft | 323 kts | 178° |
| 2026-05-04 20:00 | 56.32120 | 12.53775 | 11893 ft | 322 kts | 178° |
| 2026-05-04 20:00 | 56.29903 | 12.54302 | 11634 ft | 321 kts | 178° |
| 2026-05-04 20:00 | 56.27690 | 12.54828 | 11383 ft | 319 kts | 178° |
| 2026-05-04 20:01 | 56.25507 | 12.55348 | 11131 ft | 319 kts | 178° |
| 2026-05-04 20:01 | 56.23308 | 12.55880 | 10878 ft | 318 kts | 177° |
| 2026-05-04 20:01 | 56.21105 | 12.56418 | 10502 ft | 316 kts | 177° |
| 2026-05-04 20:01 | 56.18938 | 12.56940 | 10140 ft | 312 kts | 177° |
| 2026-05-04 20:02 | 56.16824 | 12.57430 | 9801 ft | 308 kts | 177° |
| 2026-05-04 20:02 | 56.14669 | 12.57935 | 9418 ft | 304 kts | 176° |
| 2026-05-04 20:02 | 56.12648 | 12.58832 | 9052 ft | 304 kts | 168° |
| 2026-05-04 20:02 | 56.10643 | 12.59916 | 8687 ft | 301 kts | 167° |
| 2026-05-04 20:03 | 56.08633 | 12.61013 | 8320 ft | 298 kts | 167° |
| 2026-05-04 20:03 | 56.06657 | 12.62095 | 7960 ft | 295 kts | 167° |
| 2026-05-04 20:03 | 56.04700 | 12.63164 | 7604 ft | 293 kts | 167° |
| 2026-05-04 20:03 | 56.02756 | 12.64222 | 7252 ft | 290 kts | 167° |
| 2026-05-04 20:04 | 56.00861 | 12.65457 | 6902 ft | 292 kts | 154° |
| 2026-05-04 20:04 | 55.99292 | 12.67796 | 6560 ft | 295 kts | 137° |
| 2026-05-04 20:04 | 55.97887 | 12.70462 | 6210 ft | 293 kts | 135° |
| 2026-05-04 20:04 | 55.96521 | 12.73097 | 5850 ft | 292 kts | 135° |
| 2026-05-04 20:05 | 55.95150 | 12.75740 | 5577 ft | 287 kts | 135° |
| 2026-05-04 20:05 | 55.93805 | 12.78332 | 5326 ft | 282 kts | 135° |
| 2026-05-04 20:05 | 55.92483 | 12.80881 | 5067 ft | 278 kts | 135° |
| 2026-05-04 20:05 | 55.91187 | 12.83377 | 4806 ft | 268 kts | 135° |
| 2026-05-04 20:06 | 55.89949 | 12.85760 | 4538 ft | 256 kts | 135° |
| 2026-05-04 20:06 | 55.88765 | 12.88036 | 4363 ft | 249 kts | 135° |
| 2026-05-04 20:06 | 55.87595 | 12.90271 | 4232 ft | 242 kts | 137° |
| 2026-05-04 20:06 | 55.86244 | 12.91825 | 4088 ft | 225 kts | 167° |
| 2026-05-04 20:07 | 55.84750 | 12.92403 | 3997 ft | 216 kts | 174° |
| 2026-05-04 20:07 | 55.83779 | 12.92679 | 3990 ft | 215 kts | 176° |
| 2026-05-04 20:07 | 55.82290 | 12.93014 | 3991 ft | 215 kts | 177° |
| 2026-05-04 20:07 | 55.80341 | 12.92910 | 3993 ft | 211 kts | 194° |
| 2026-05-04 20:08 | 55.79384 | 12.92502 | 3992 ft | 207 kts | 206° |
| 2026-05-04 20:08 | 55.78183 | 12.91161 | 3993 ft | 203 kts | 225° |
| 2026-05-04 20:08 | 55.77121 | 12.89493 | 3831 ft | 204 kts | 225° |
| 2026-05-04 20:08 | 55.76074 | 12.87848 | 3601 ft | 202 kts | 225° |
| 2026-05-04 20:09 | 55.75019 | 12.86197 | 3339 ft | 200 kts | 225° |
| 2026-05-04 20:09 | 55.73978 | 12.84570 | 3068 ft | 197 kts | 225° |
| 2026-05-04 20:09 | 55.72955 | 12.82971 | 2803 ft | 195 kts | 225° |
| 2026-05-04 20:09 | 55.71943 | 12.81391 | 2541 ft | 192 kts | 225° |
| 2026-05-04 20:10 | 55.70942 | 12.79829 | 2276 ft | 190 kts | 225° |
| 2026-05-04 20:10 | 55.69967 | 12.78308 | 2021 ft | 188 kts | 225° |
| 2026-05-04 20:10 | 55.68997 | 12.76797 | 1800 ft | 185 kts | 225° |
| 2026-05-04 20:10 | 55.68015 | 12.75266 | 1503 ft | 184 kts | 225° |
| 2026-05-04 20:11 | 55.67093 | 12.73819 | 1231 ft | 169 kts | 226° |
| 2026-05-04 20:11 | 55.66242 | 12.72498 | 992 ft | 153 kts | 223° |
| 2026-05-04 20:11 | 55.65493 | 12.71409 | 799 ft | 132 kts | 225° |
| 2026-05-04 20:11 | 55.64840 | 12.70324 | 570 ft | 126 kts | 225° |
| 2026-05-04 20:12 | 55.64181 | 12.69307 | 422 ft | 127 kts | 224° |
| 2026-05-04 20:12 | 55.63519 | 12.68269 | 304 ft | 128 kts | 225° |
| 2026-05-04 20:12 | 55.62861 | 12.67251 | 136 ft | 126 kts | 224° |
| 2026-05-04 20:12 | 55.62207 | 12.66238 | 18 ft | 117 kts | 223° |
| 2026-05-04 20:13 | 55.61706 | 12.65461 | 19 ft | 71 kts | 221° |
| 2026-05-04 20:13 | 55.61468 | 12.65090 | 19 ft | 30 kts | 221° |
| 2026-05-04 20:13 | 55.61308 | 12.64809 | 22 ft | 32 kts | 233° |
| 2026-05-04 20:13 | 55.61234 | 12.64515 | 21 ft | 26 kts | 252° |
| 2026-05-04 20:14 | 55.61191 | 12.64285 | 19 ft | 18 kts | 251° |
| 2026-05-04 20:14 | 55.61195 | 12.64155 | 16 ft | 5 kts | 303° |
| 2026-05-04 20:14 | 55.61232 | 12.64109 | 16 ft | 8 kts | 334° |
| 2026-05-04 20:14 | 55.61287 | 12.64120 | 18 ft | 9 kts | 33° |
| 2026-05-04 20:15 | 55.61350 | 12.64194 | 17 ft | 13 kts | 33° |
| 2026-05-04 20:15 | 55.61447 | 12.64305 | 18 ft | 19 kts | 32° |
| 2026-05-04 20:15 | 55.61568 | 12.64442 | 18 ft | 22 kts | 33° |
| 2026-05-04 20:15 | 55.61703 | 12.64600 | 19 ft | 25 kts | 34° |
| 2026-05-04 20:16 | 55.61797 | 12.64710 | 22 ft | 15 kts | 33° |
| 2026-05-04 20:16 | 55.61898 | 12.64825 | 19 ft | 20 kts | 32° |
| 2026-05-04 20:16 | 55.61999 | 12.64939 | 20 ft | 15 kts | 33° |
| 2026-05-04 20:16 | 55.62063 | 12.65014 | 21 ft | 12 kts | 34° |
| 2026-05-04 20:17 | 55.62122 | 12.65082 | 25 ft | 5 kts | 33° |
| 2026-05-04 20:17 | 55.62122 | 12.65083 | 25 ft | 0 kts | 33° |
| 2026-05-04 20:19 | 55.62126 | 12.65086 | 25 ft | 2 kts | 33° |
| 2026-05-04 20:19 | 55.62140 | 12.65103 | 24 ft | 13 kts | 32° |
| 2026-05-04 20:19 | 55.62239 | 12.65161 | 24 ft | 17 kts | 330° |
| 2026-05-04 20:20 | 55.62315 | 12.64969 | 24 ft | 20 kts | 302° |
| 2026-05-04 20:20 | 55.62382 | 12.64789 | 24 ft | 21 kts | 304° |
| 2026-05-04 20:20 | 55.62463 | 12.64585 | 22 ft | 21 kts | 309° |
| 2026-05-04 20:20 | 55.62551 | 12.64500 | 21 ft | 11 kts | 24° |